Lionhead Wind

Lionhead weather stationLocated on Lionhead Ridge near West Yellowstone. Use the nearest SNOTEL station for snow depth data: Madison Plateau. The data on this page is also available to view at dataGarrison.com.

Elevation
9420ft
Jump to table bottom
Date Time Temperature
deg F
RH, % Wind Speed Wind Gust Wind Direction Pressure Light
02/08/23 18:00 7.2 96 9 39 NW - 299 718.400 0
02/08/23 17:00 7.8 95 11 35 W - 288 716.620 0
02/08/23 16:00 9.1 95 12 34 W - 272 716.420 0
02/08/23 15:00 12.6 95 9 30 W - 277 715.480 0
02/08/23 14:00 11.7 95 14 49 W - 274 714.600 0
02/08/23 13:00 12.4 94 11 52 W - 279 713.760 0
02/08/23 12:00 14.6 96 8 29 W - 286 714.140 0
02/08/23 11:00 9.2 94 13 48 W - 291 715.040 0
02/08/23 10:00 10.0 96 11 45 W - 277 714.240 0
02/08/23 09:00 9.9 96 13 36 W - 272 714.240 0
02/08/23 08:00 10.4 97 22 34 SW - 246 713.560 0
02/08/23 07:00 10.3 96 21 33 SW - 233 712.200 0
02/08/23 06:00 10.6 97 11 19 SW - 220 713.620 0
02/08/23 05:00 11.1 97 10 16 SW - 216 714.560 0
02/08/23 04:00 11.3 97 14 22 SW - 232 714.880 0
02/08/23 03:00 11.6 97 15 24 SW - 233 715.160 0
02/08/23 02:00 11.6 97 17 25 SW - 233 715.540 0
02/08/23 01:00 12.0 97 21 36 SW - 232 716.200 0
02/08/23 00:00 12.6 97 23 34 SW - 237 716.060 0
02/07/23 23:00 12.9 98 24 35 SW - 233 716.280 0
02/07/23 22:00 12.3 98 19 27 SW - 227 717.000 0
02/07/23 21:00 11.9 97 24 35 SW - 219 717.540 0
02/07/23 20:00 11.5 97 24 36 SW - 227 717.760 0
02/07/23 19:00 11.5 97 21 32 SW - 229 718.080 0
02/07/23 18:00 11.3 97 17 22 SW - 230 719.120 0
02/07/23 17:00 11.8 97 18 24 SW - 233 719.540 0
02/07/23 16:00 12.3 97 17 24 SW - 232 719.340 0
02/07/23 15:00 14.3 96 16 24 SW - 233 719.600 0
02/07/23 14:00 14.4 96 17 23 SW - 233 719.640 0
02/07/23 13:00 13.9 96 15 22 SW - 229 719.940 0
02/07/23 12:00 14.0 97 14 20 SW - 230 720.400 0
02/07/23 11:00 13.2 97 14 21 SW - 230 720.380 0
02/07/23 10:00 12.4 97 16 22 SW - 244 719.920 0
02/07/23 09:00 10.8 97 20 27 SW - 237 719.760 0
02/07/23 08:00 10.4 97 14 20 SW - 233 719.840 0
02/07/23 07:00 10.2 97 15 23 SW - 234 719.660 0
02/07/23 06:00 9.9 97 17 22 SW - 227 719.300 0
02/07/23 05:00 10.6 97 17 24 SW - 230 718.620 0
02/07/23 04:00 12.5 97 14 22 SW - 246 719.060 0
02/07/23 03:00 13.5 98 11 16 W - 250 718.820 0
02/07/23 02:00 13.4 98 12 17 SW - 241 718.800 0
02/07/23 01:00 13.0 97 14 21 SW - 237 718.500 0
02/07/23 00:00 13.4 98 14 21 SW - 240 718.240 0
02/06/23 23:00 13.4 98 14 23 SW - 229 718.080 0
02/06/23 22:00 13.3 98 14 18 SW - 230 718.020 0
02/06/23 21:00 13.4 98 16 21 SW - 220 717.720 0
02/06/23 20:00 14.2 98 11 20 SW - 241 717.080 0
02/06/23 19:00 15.3 98 8 17 W - 264 717.420 0
02/06/23 18:00 15.5 98 11 20 W - 253 717.140 0
02/06/23 17:00 16.0 98 10 26 W - 267 716.600 0